Time;durP1;ratioP1;P1;durP2;ratioP2;P2;SDS_P1;SDS_P2;PMS_P1;PMS_P2;Temp;Humidity;BMP_temperature;BMP_pressure;BME280_temperature;BME280_humidity;BME280_pressure;Samples;Min_cycle;Max_cycle;Signal;HPM_P1;HPM_P2
2022/05/20 00:00:05;;;;;;;3.70;2.30;;;;;;;11.08;65.16;98096.84;5036636;28;20191;-84
2022/05/20 00:02:33;;;;;;;3.27;2.20;;;;;;;11.18;64.30;98099.97;5042603;28;20196;-87
2022/05/20 00:05:01;;;;;;;3.57;2.13;;;;;;;11.23;64.35;98093.75;5035061;28;20258;-85
2022/05/20 00:07:30;;;;;;;6.53;2.10;;;;;;;11.07;65.04;98063.16;5022354;28;20201;-90
2022/05/20 00:09:59;;;;;;;2.87;2.57;;;;;;;11.39;63.75;98102.75;5032189;28;20195;-87
2022/05/20 00:12:26;;;;;;;2.73;2.00;;;;;;;11.34;63.50;98102.03;5016581;28;20760;-85
2022/05/20 00:14:54;;;;;;;3.30;2.10;;;;;;;11.37;63.72;98096.75;5035732;28;20204;-89
2022/05/20 00:17:24;;;;;;;2.90;2.60;;;;;;;11.11;63.74;98082.91;5022448;28;20199;-85
2022/05/20 00:19:52;;;;;;;2.77;1.87;;;;;;;11.27;64.33;98099.69;5039803;28;20194;-84
2022/05/20 00:22:19;;;;;;;3.27;1.97;;;;;;;11.06;64.02;98075.31;5037861;28;20188;-84
2022/05/20 00:27:34;;;;;;;2.33;1.80;;;;;;;11.08;64.81;98091.66;5038747;28;20665;-84
2022/05/20 00:30:02;;;;;;;2.67;2.43;;;;;;;10.73;64.83;98047.81;5037831;28;20194;-86
2022/05/20 00:32:30;;;;;;;2.30;2.00;;;;;;;10.86;64.52;98082.81;5017726;28;20186;-87
2022/05/20 00:34:59;;;;;;;3.33;1.90;;;;;;;10.94;65.15;98083.44;5034558;28;20289;-88
2022/05/20 00:37:26;;;;;;;2.33;2.13;;;;;;;10.85;64.46;98081.13;5033136;28;20294;-87
2022/05/20 00:39:55;;;;;;;3.13;1.90;;;;;;;10.47;64.92;98046.00;5033846;28;20749;-85
2022/05/20 00:42:22;;;;;;;2.60;2.30;;;;;;;10.67;65.01;98089.47;5002236;28;20610;-89
2022/05/20 00:44:50;;;;;;;2.63;2.07;;;;;;;10.49;65.51;98074.44;5021493;28;20694;-86
2022/05/20 00:47:17;;;;;;;3.43;2.00;;;;;;;10.48;65.96;98101.22;5033565;28;20199;-89
2022/05/20 00:49:49;;;;;;;2.63;2.00;;;;;;;10.02;66.73;98083.50;5045205;28;20199;-94
2022/05/20 00:52:21;;;;;;;2.67;2.10;;;;;;;9.76;66.60;98045.41;5040169;28;20242;-94
2022/05/20 00:54:53;;;;;;;2.77;2.30;;;;;;;9.99;67.17;98095.66;5039595;28;20190;-96
2022/05/20 00:57:29;;;;;;;2.97;2.10;;;;;;;9.91;67.47;98100.19;5043575;28;20202;-85
2022/05/20 01:00:09;;;;;;;2.43;2.10;;;;;;;9.90;67.36;98101.94;5045616;28;20202;-88
2022/05/20 01:02:41;;;;;;;3.63;2.10;;;;;;;9.92;67.49;98096.72;5052242;28;20201;-90
2022/05/20 01:05:22;;;;;;;3.13;2.03;;;;;;;9.81;67.58;98071.13;5047573;28;20194;-94
2022/05/20 01:07:52;;;;;;;3.53;2.07;;;;;;;9.56;67.58;98050.22;5024517;28;20205;-93
2022/05/20 01:10:19;;;;;;;2.53;2.20;;;;;;;9.19;67.89;98018.41;5041604;28;20179;-95
2022/05/20 01:12:51;;;;;;;4.73;2.40;;;;;;;9.32;68.84;98071.50;5034273;28;20195;-95
2022/05/20 01:15:19;;;;;;;3.27;2.20;;;;;;;9.30;69.12;98099.13;4983668;28;20262;-92
2022/05/20 01:17:52;;;;;;;5.37;2.40;;;;;;;9.32;69.04;98096.50;5032748;28;20214;-93
2022/05/20 01:20:31;;;;;;;3.47;2.23;;;;;;;9.45;68.70;98090.16;5021053;28;20193;-94
2022/05/20 01:23:06;;;;;;;3.33;2.50;;;;;;;9.61;68.05;98092.34;5034707;28;20236;-95
2022/05/20 01:25:34;;;;;;;2.80;2.50;;;;;;;9.73;67.59;98083.41;5037831;28;20194;-92
2022/05/20 01:28:04;;;;;;;2.97;2.53;;;;;;;9.65;68.44;98093.97;5039154;28;20272;-93
2022/05/20 01:30:32;;;;;;;4.50;2.40;;;;;;;9.55;68.49;98053.69;5037514;28;20218;-94
2022/05/20 01:33:03;;;;;;;3.10;2.30;;;;;;;9.70;68.50;98070.56;5019285;28;20193;-94
2022/05/20 01:35:46;;;;;;;3.70;2.27;;;;;;;9.61;69.32;98092.34;5032631;28;20272;-95
2022/05/20 01:38:13;;;;;;;3.43;2.57;;;;;;;9.24;69.97;98049.31;5029826;28;20226;-92
2022/05/20 01:40:49;;;;;;;3.00;2.00;;;;;;;9.33;71.35;98083.56;5031565;28;20194;-93
2022/05/20 01:43:34;;;;;;;2.50;2.30;;;;;;;9.39;70.70;98083.41;5035379;28;20222;-96
2022/05/20 01:46:38;;;;;;;5.60;2.40;;;;;;;9.48;70.79;98083.19;5051274;28;20197;-85
2022/05/20 01:49:26;;;;;;;2.90;2.20;;;;;;;9.40;70.91;98074.75;5047608;28;20201;-92
2022/05/20 01:52:12;;;;;;;3.40;2.40;;;;;;;9.41;70.39;98080.78;5013843;28;20223;-95
2022/05/20 01:55:16;;;;;;;3.90;2.93;;;;;;;9.34;69.82;98072.31;5001337;28;20683;-92
2022/05/20 01:58:08;;;;;;;3.83;2.90;;;;;;;9.43;69.18;98077.28;5036888;28;20200;-95
2022/05/20 02:00:39;;;;;;;3.10;2.37;;;;;;;9.01;69.70;98044.72;5035158;28;20209;-93
2022/05/20 02:03:21;;;;;;;3.53;2.80;;;;;;;9.11;69.39;98074.59;5038063;28;20210;-94
2022/05/20 02:06:02;;;;;;;5.20;3.00;;;;;;;8.89;70.29;98069.09;5013935;28;20235;-94
2022/05/20 02:08:37;;;;;;;5.27;2.90;;;;;;;8.90;71.22;98064.78;5035426;28;20193;-90
2022/05/20 02:11:11;;;;;;;5.23;2.70;;;;;;;9.06;70.70;98094.53;5006733;28;20193;-93
2022/05/20 02:13:47;;;;;;;3.93;2.77;;;;;;;8.92;70.85;98071.59;5041782;28;20236;-92
2022/05/20 02:16:23;;;;;;;3.10;2.60;;;;;;;9.10;70.72;98088.44;5040837;28;20213;-89
2022/05/20 02:19:17;;;;;;;3.60;2.90;;;;;;;9.28;70.62;98084.53;5032004;28;20693;-95
2022/05/20 02:21:51;;;;;;;4.07;2.53;;;;;;;9.17;69.31;98071.88;5026175;28;20183;-88
2022/05/20 02:24:24;;;;;;;3.10;2.40;;;;;;;9.17;69.14;98066.72;5042703;28;20213;-94
2022/05/20 02:26:55;;;;;;;3.47;2.30;;;;;;;9.19;68.47;98077.84;5029585;28;20209;-89
2022/05/20 02:29:48;;;;;;;3.13;2.73;;;;;;;9.39;68.35;98077.38;5024136;28;20190;-85
2022/05/20 02:32:31;;;;;;;5.33;3.00;;;;;;;9.58;67.45;98082.06;5044953;28;20244;-94
2022/05/20 02:34:58;;;;;;;5.53;2.93;;;;;;;9.65;66.52;98065.50;5027695;28;20186;-93
2022/05/20 02:37:35;;;;;;;5.07;2.83;;;;;;;9.62;66.68;98055.22;5013777;28;20652;-94
2022/05/20 02:40:09;;;;;;;5.20;3.10;;;;;;;9.95;66.28;98081.13;5047126;28;20240;-94
2022/05/20 02:42:38;;;;;;;6.70;3.30;;;;;;;9.90;65.69;98078.66;5021965;28;20190;-90
2022/05/20 02:45:22;;;;;;;4.13;2.80;;;;;;;9.94;66.10;98074.22;5057358;28;20250;-86
2022/05/20 02:48:13;;;;;;;3.27;2.77;;;;;;;10.12;64.84;98073.78;5059353;28;20205;-85
2022/05/20 02:50:54;;;;;;;3.00;2.73;;;;;;;10.19;64.83;98078.75;5039676;28;20253;-85
2022/05/20 02:53:26;;;;;;;3.20;2.70;;;;;;;10.23;64.51;98085.53;5041221;28;20186;-86
2022/05/20 02:55:53;;;;;;;4.27;3.20;;;;;;;9.99;64.86;98054.28;5055846;28;20268;-91
2022/05/20 03:04:13;;;;;;;3.97;3.17;;;;;;;9.92;64.90;98076.00;5022544;28;20976;-92
2022/05/20 03:06:46;;;;;;;4.83;3.07;;;;;;;9.80;65.94;98101.34;5036029;28;20238;-86
2022/05/20 03:09:17;;;;;;;2.57;2.37;;;;;;;9.53;66.86;98102.03;5042318;28;20213;-94
2022/05/20 03:11:44;;;;;;;4.07;2.40;;;;;;;9.48;66.82;98097.88;5036380;28;20194;-91
2022/05/20 03:14:18;;;;;;;3.47;2.83;;;;;;;9.38;68.06;98099.81;5018402;28;20195;-90
2022/05/20 03:16:47;;;;;;;4.53;2.70;;;;;;;9.25;69.08;98105.31;5037166;28;20182;-92
2022/05/20 03:19:16;;;;;;;2.80;2.60;;;;;;;9.26;69.21;98113.03;5004690;28;20230;-95
2022/05/20 03:21:44;;;;;;;3.60;2.80;;;;;;;9.18;69.99;98091.69;5041306;28;20194;-95
2022/05/20 03:24:26;;;;;;;6.50;3.00;;;;;;;9.47;69.48;98099.59;5025663;28;20260;-87
2022/05/20 03:26:56;;;;;;;4.00;2.40;;;;;;;9.61;69.62;98094.91;5029788;28;20211;-88
2022/05/20 03:29:26;;;;;;;3.93;2.80;;;;;;;9.25;69.05;98036.38;5016742;28;20229;-94
2022/05/20 03:31:54;;;;;;;5.13;2.50;;;;;;;9.41;70.35;98081.66;5017208;28;20252;-90
2022/05/20 03:34:24;;;;;;;2.80;2.50;;;;;;;9.50;70.85;98099.50;5030622;28;20256;-87
2022/05/20 03:36:55;;;;;;;2.53;2.33;;;;;;;9.53;71.21;98078.75;5014827;28;20200;-90
2022/05/20 03:39:25;;;;;;;2.50;1.80;;;;;;;9.77;70.40;98083.28;5031041;28;20226;-89
2022/05/20 03:41:52;;;;;;;3.00;2.20;;;;;;;10.20;69.15;98115.84;5032832;28;20772;-90
2022/05/20 03:44:21;;;;;;;3.80;2.57;;;;;;;10.29;68.73;98112.97;5044475;28;20198;-88
2022/05/20 03:46:51;;;;;;;3.00;2.50;;;;;;;10.10;67.95;98078.13;5035417;28;20752;-87
2022/05/20 03:49:20;;;;;;;3.00;2.60;;;;;;;9.80;67.87;98013.38;5044760;28;20198;-90
2022/05/20 03:51:51;;;;;;;3.40;2.77;;;;;;;10.44;67.58;98121.19;5042842;28;20611;-88
2022/05/20 03:54:24;;;;;;;3.80;2.80;;;;;;;10.52;66.94;98092.47;5051483;28;20328;-88
2022/05/20 03:56:52;;;;;;;3.50;2.70;;;;;;;10.67;67.40;98117.94;5049148;28;20190;-91
2022/05/20 03:59:19;;;;;;;4.77;2.67;;;;;;;10.69;67.12;98121.34;5048773;28;20777;-92
2022/05/20 04:01:59;;;;;;;6.20;3.47;;;;;;;10.72;66.11;98103.09;5049163;28;20669;-91
2022/05/20 04:04:33;;;;;;;5.20;3.40;;;;;;;10.87;65.43;98123.41;5032043;28;20182;-87
2022/05/20 04:07:04;;;;;;;3.33;2.50;;;;;;;11.03;64.46;98116.00;5054083;28;20255;-93
2022/05/20 04:09:32;;;;;;;6.00;2.63;;;;;;;11.05;63.70;98122.84;5052589;28;20202;-91
2022/05/20 04:12:06;;;;;;;5.23;2.90;;;;;;;11.07;62.91;98118.44;5035094;28;20205;-91
2022/05/20 04:14:35;;;;;;;2.90;2.53;;;;;;;11.07;62.86;98102.91;5052557;28;20890;-91
2022/05/20 04:17:04;;;;;;;5.57;2.43;;;;;;;11.30;62.58;98121.19;5032787;28;20198;-95
2022/05/20 04:19:33;;;;;;;3.73;2.33;;;;;;;11.63;61.74;98121.00;5015495;28;20341;-93
2022/05/20 04:22:07;;;;;;;3.93;2.17;;;;;;;12.37;59.39;98119.31;5031337;28;20202;-90
2022/05/20 04:24:35;;;;;;;3.33;2.20;;;;;;;12.50;58.25;98118.00;5050396;28;20704;-91
2022/05/20 04:27:04;;;;;;;3.20;2.43;;;;;;;12.34;59.33;98118.59;5051806;28;20178;-93
2022/05/20 04:29:31;;;;;;;3.47;2.50;;;;;;;12.19;58.85;98117.38;5035077;28;20223;-91
2022/05/20 04:31:59;;;;;;;6.10;2.87;;;;;;;12.12;59.18;98095.13;5069228;28;20221;-87
2022/05/20 04:34:26;;;;;;;4.40;2.73;;;;;;;12.32;58.61;98123.00;5050545;28;20190;-93
2022/05/20 04:36:54;;;;;;;7.13;3.27;;;;;;;12.36;58.14;98085.63;5068920;28;20190;-85
2022/05/20 04:39:22;;;;;;;3.23;2.40;;;;;;;13.13;57.53;98121.75;5072619;28;20213;-86
2022/05/20 04:47:26;;;;;;;2.93;2.30;;;;;;;13.17;57.34;98105.09;5036967;28;20196;-85
2022/05/20 04:49:56;;;;;;;5.67;2.40;;;;;;;13.28;56.84;98090.75;5049928;28;20667;-84
2022/05/20 04:52:23;;;;;;;3.57;2.70;;;;;;;13.42;57.24;98078.03;5055059;28;20233;-84
2022/05/20 04:54:52;;;;;;;5.97;3.80;;;;;;;13.93;56.57;98127.09;5054135;28;20195;-84
2022/05/20 04:57:44;;;;;;;4.87;2.50;;;;;;;13.73;56.46;98096.69;5052761;28;20220;-90
2022/05/20 05:00:18;;;;;;;4.60;2.70;;;;;;;13.84;56.94;98130.09;5030797;28;20323;-86
2022/05/20 05:02:46;;;;;;;4.13;2.40;;;;;;;13.89;57.00;98115.13;5030710;28;20249;-87
2022/05/20 05:05:18;;;;;;;2.60;2.40;;;;;;;14.16;56.45;98124.38;5049324;28;20186;-89
2022/05/20 05:07:49;;;;;;;4.73;3.00;;;;;;;14.17;57.21;98126.09;5050489;28;20237;-87
2022/05/20 05:10:21;;;;;;;3.23;2.90;;;;;;;14.63;54.99;98123.19;5051454;28;20200;-87
2022/05/20 05:12:49;;;;;;;3.13;2.53;;;;;;;14.94;54.23;98086.13;5032221;28;20801;-86
2022/05/20 05:15:18;;;;;;;5.03;2.63;;;;;;;15.16;53.99;98110.31;5048971;28;20194;-87
2022/05/20 05:20:34;;;;;;;3.87;2.77;;;;;;;15.39;53.08;98070.09;5053430;28;20256;-88
2022/05/20 05:23:03;;;;;;;3.63;2.60;;;;;;;16.10;51.81;98101.31;5048583;28;20598;-89
2022/05/20 05:25:33;;;;;;;9.37;3.47;;;;;;;16.23;50.32;98107.63;5032031;28;20192;-91
2022/05/20 05:28:00;;;;;;;7.30;2.70;;;;;;;16.39;49.30;98112.91;5049520;28;20292;-89
2022/05/20 05:30:29;;;;;;;4.23;2.73;;;;;;;16.18;50.32;98127.06;5039811;28;20254;-84
2022/05/20 05:33:11;;;;;;;5.50;2.90;;;;;;;16.07;50.50;98122.38;5039555;28;20198;-86
2022/05/20 05:35:49;;;;;;;3.37;2.23;;;;;;;15.98;51.14;98114.16;5052709;28;20265;-87
2022/05/20 05:38:22;;;;;;;8.40;2.77;;;;;;;15.76;51.46;98085.66;5048660;28;20224;-91
2022/05/20 05:40:51;;;;;;;4.30;2.93;;;;;;;15.66;52.14;98083.59;5058021;28;20315;-88
2022/05/20 05:43:18;;;;;;;3.53;2.70;;;;;;;15.88;51.23;98118.16;5056669;28;20189;-90
2022/05/20 05:45:47;;;;;;;4.77;2.67;;;;;;;15.83;50.31;98097.47;5048617;28;20218;-91
2022/05/20 05:48:17;;;;;;;4.37;2.53;;;;;;;16.22;49.70;98099.84;5050005;28;20190;-89
2022/05/20 05:50:44;;;;;;;3.67;2.43;;;;;;;16.62;48.99;98107.34;5048066;28;20243;-93
2022/05/20 05:53:16;;;;;;;4.53;2.77;;;;;;;17.29;47.73;98109.75;5048956;28;20704;-91
2022/05/20 05:55:47;;;;;;;6.10;2.80;;;;;;;17.52;46.27;98109.38;5031672;28;20322;-91
2022/05/20 05:58:15;;;;;;;6.20;2.50;;;;;;;17.47;45.60;98090.44;5049693;28;20190;-91
2022/05/20 06:00:49;;;;;;;6.00;2.37;;;;;;;17.88;44.51;98109.91;5037141;28;20755;-89
2022/05/20 06:03:19;;;;;;;4.70;2.40;;;;;;;17.94;43.67;98073.78;5033681;28;20277;-88
2022/05/20 06:05:51;;;;;;;5.40;3.27;;;;;;;18.10;44.26;98112.09;5052127;28;20244;-92
2022/05/20 06:08:20;;;;;;;4.03;2.80;;;;;;;18.09;44.10;98057.16;5012462;28;20202;-85
2022/05/20 06:10:49;;;;;;;8.43;3.07;;;;;;;18.11;43.81;98090.22;5045315;28;20199;-85
2022/05/20 06:13:28;;;;;;;9.27;2.70;;;;;;;18.47;43.57;98092.41;5048439;28;20228;-85
2022/05/20 06:15:56;;;;;;;2.33;2.13;;;;;;;18.45;43.88;98086.44;5051535;28;20200;-89
2022/05/20 06:18:25;;;;;;;3.40;1.97;;;;;;;18.13;44.29;98104.06;5053469;28;20193;-88
2022/05/20 06:20:54;;;;;;;2.13;1.73;;;;;;;18.32;43.22;98101.19;5032416;28;20254;-88
2022/05/20 06:23:22;;;;;;;3.60;1.77;;;;;;;18.31;43.60;98108.22;5049360;28;20214;-85
2022/05/20 06:25:52;;;;;;;5.00;2.10;;;;;;;18.06;44.44;98073.03;5050155;28;20260;-86
2022/05/20 06:28:40;;;;;;;3.60;2.47;;;;;;;18.42;43.88;98103.16;5052764;28;20215;-86
2022/05/20 06:31:08;;;;;;;5.93;2.07;;;;;;;18.53;42.87;98097.28;5049707;28;20204;-86
2022/05/20 06:33:39;;;;;;;3.97;3.13;;;;;;;18.96;42.89;98106.03;5048772;28;20208;-83
2022/05/20 06:41:46;;;;;;;3.60;2.00;;;;;;;19.34;42.80;98102.69;5059195;28;20207;-85
2022/05/20 06:44:13;;;;;;;3.53;2.00;;;;;;;19.58;41.35;98102.88;5035236;28;20221;-90
2022/05/20 06:46:40;;;;;;;5.20;3.17;;;;;;;19.74;41.26;98110.63;5035163;28;20204;-94
2022/05/20 06:49:10;;;;;;;5.50;2.63;;;;;;;19.79;40.76;98090.13;5053102;28;20786;-91
2022/05/20 06:51:38;;;;;;;4.77;2.37;;;;;;;19.94;40.92;98100.50;5035745;28;20258;-85
2022/05/20 06:54:11;;;;;;;3.93;2.53;;;;;;;20.22;40.62;98115.28;5033743;28;20209;-91
2022/05/20 06:56:44;;;;;;;10.50;5.63;;;;;;;20.14;39.76;98062.31;5053541;28;20524;-87
2022/05/20 06:59:15;;;;;;;4.57;2.60;;;;;;;20.07;39.75;98084.75;5017185;28;20223;-94
2022/05/20 07:01:43;;;;;;;7.07;2.80;;;;;;;20.34;39.88;98100.47;5034958;28;20189;-85
2022/05/20 07:04:30;;;;;;;2.70;1.90;;;;;;;20.35;40.13;98099.53;5033116;28;20206;-85
2022/05/20 07:07:00;;;;;;;2.40;2.20;;;;;;;20.46;39.80;98095.22;5051127;28;20186;-85
2022/05/20 07:09:27;;;;;;;4.73;2.20;;;;;;;20.59;39.83;98098.69;5046791;28;20285;-87
2022/05/20 07:11:58;;;;;;;4.10;1.80;;;;;;;20.78;39.45;98099.09;5048843;28;20279;-86
2022/05/20 07:14:25;;;;;;;5.27;3.90;;;;;;;20.89;38.63;98085.19;5051442;28;20190;-87
2022/05/20 07:16:57;;;;;;;3.30;2.17;;;;;;;21.25;38.35;98098.38;5032944;28;20299;-87
2022/05/20 07:19:26;;;;;;;7.63;2.37;;;;;;;21.36;37.55;98089.72;5033384;28;20308;-86
2022/05/20 07:21:53;;;;;;;3.80;2.07;;;;;;;21.35;37.09;98096.78;5050506;28;20229;-86
2022/05/20 07:24:22;;;;;;;2.73;2.50;;;;;;;21.16;37.14;98087.69;5052738;28;20195;-85
2022/05/20 07:26:51;;;;;;;2.20;1.87;;;;;;;21.06;37.47;98071.69;5025054;28;20205;-88
2022/05/20 07:29:19;;;;;;;5.17;2.07;;;;;;;21.30;37.38;98095.44;5068905;28;20225;-84
2022/05/20 07:31:48;;;;;;;4.40;1.97;;;;;;;21.42;36.77;98076.09;5047911;28;20264;-87
2022/05/20 07:34:15;;;;;;;4.23;2.57;;;;;;;21.62;37.14;98096.56;5053416;28;20191;-86
2022/05/20 07:36:42;;;;;;;2.73;2.27;;;;;;;21.48;36.48;98054.56;5035586;28;20267;-87
2022/05/20 07:39:12;;;;;;;5.10;3.17;;;;;;;21.85;35.75;98091.31;5038344;28;20262;-85
2022/05/20 07:41:48;;;;;;;3.90;2.80;;;;;;;21.91;35.58;98095.28;5041431;28;20589;-87
2022/05/20 07:44:20;;;;;;;3.13;2.60;;;;;;;21.85;35.65;98087.84;5019699;28;20208;-86
2022/05/20 07:46:48;;;;;;;6.53;2.10;;;;;;;21.55;35.40;98050.53;5055631;28;20196;-89
2022/05/20 07:49:15;;;;;;;3.67;3.00;;;;;;;21.93;35.54;98090.75;5035443;28;20196;-91
2022/05/20 07:51:46;;;;;;;10.53;2.53;;;;;;;22.02;35.08;98074.25;5052615;28;20347;-89
2022/05/20 07:54:42;;;;;;;2.03;1.70;;;;;;;22.06;34.76;98075.69;5034143;28;20758;-90
2022/05/20 07:57:18;;;;;;;4.70;2.10;;;;;;;21.94;34.84;98029.13;5027024;28;20235;-90
2022/05/20 08:10:40;;;;;;;6.20;2.50;;;;;;;21.85;34.56;97926.94;4828356;29;20215;-94
2022/05/20 08:18:45;;;;;;;5.83;2.70;;;;;;;22.56;34.40;98004.03;4883872;29;20206;-89
2022/05/20 08:26:55;;;;;;;1.57;1.47;;;;;;;22.38;34.29;98050.31;4945103;28;20254;-94
2022/05/20 08:34:56;;;;;;;;;;;;;;;;;;;;;
2022/05/20 08:38:17;;;;;;;3.67;1.70;;;;;;;22.74;33.03;97988.53;4946549;28;20215;-87
2022/05/20 08:44:33;;;;;;;4.07;2.27;;;;;;;23.31;32.21;98041.13;4970400;28;20200;-86
2022/05/20 08:47:30;;;;;;;4.03;2.80;;;;;;;23.33;31.62;98033.97;4990988;28;20668;-84
2022/05/20 08:51:23;;;;;;;2.50;1.30;;;;;;;22.80;31.38;97989.84;4968611;28;20195;-88
2022/05/20 08:54:17;;;;;;;1.60;1.50;;;;;;;22.90;32.20;98025.13;5007765;28;20267;-92
2022/05/20 08:57:24;;;;;;;3.90;1.70;;;;;;;22.49;31.93;97907.75;5036122;28;20207;-86
2022/05/20 08:59:54;;;;;;;1.80;1.43;;;;;;;23.24;32.23;98017.03;5051791;28;20236;-93
2022/05/20 09:02:24;;;;;;;1.40;1.30;;;;;;;23.24;31.71;98024.13;5052076;28;20243;-91
2022/05/20 09:04:52;;;;;;;4.00;1.90;;;;;;;23.29;31.29;98009.56;5050726;28;20190;-93
2022/05/20 09:07:20;;;;;;;1.97;1.70;;;;;;;23.11;31.75;97991.69;5016398;28;20656;-92
2022/05/20 09:09:50;;;;;;;3.93;1.80;;;;;;;23.31;32.14;98022.63;5034149;28;20199;-85
2022/05/20 09:12:33;;;;;;;4.20;2.23;;;;;;;23.44;32.06;98015.44;5032481;28;20188;-88
2022/05/20 09:18:11;;;;;;;3.40;1.43;;;;;;;23.35;32.02;98009.09;5050039;28;20193;-88
2022/05/20 09:20:47;;;;;;;7.93;1.73;;;;;;;23.24;32.78;97966.81;5053300;28;20225;-87
2022/05/20 09:23:22;;;;;;;3.50;1.90;;;;;;;23.48;32.34;97982.47;5049885;28;20204;-89
2022/05/20 09:26:01;;;;;;;2.60;1.50;;;;;;;23.53;28.84;97993.53;5051639;28;20209;-89
2022/05/20 09:28:59;;;;;;;2.57;1.60;;;;;;;23.55;29.34;97993.38;5039047;28;20200;-88
2022/05/20 09:32:00;;;;;;;3.80;1.30;;;;;;;23.60;28.37;97989.38;5034488;28;20202;-90
2022/05/20 09:34:39;;;;;;;1.60;1.17;;;;;;;23.40;28.49;97990.19;5034868;28;20666;-85
2022/05/20 09:37:14;;;;;;;3.33;1.80;;;;;;;23.64;28.25;97982.88;5032316;28;20205;-87
2022/05/20 09:39:47;;;;;;;3.13;1.40;;;;;;;23.78;28.23;97979.91;5037145;28;20199;-86
2022/05/20 09:42:21;;;;;;;3.27;1.20;;;;;;;23.57;27.33;97978.22;5063670;28;20275;-91
2022/05/20 09:44:58;;;;;;;2.83;1.60;;;;;;;23.60;26.71;97976.16;5051215;28;20196;-88
2022/05/20 09:47:53;;;;;;;1.47;1.30;;;;;;;23.39;25.79;97951.50;5051585;28;20533;-91
2022/05/20 09:51:11;;;;;;;2.43;1.20;;;;;;;23.60;26.63;97984.09;5037037;28;20705;-93
2022/05/20 09:54:05;;;;;;;1.33;1.23;;;;;;;23.70;26.34;97971.78;5019141;28;20207;-94
2022/05/20 09:56:41;;;;;;;2.03;1.73;;;;;;;23.82;27.12;97970.75;5049753;28;20279;-91
2022/05/20 09:59:33;;;;;;;3.33;1.70;;;;;;;23.98;27.22;97972.94;5052789;28;20715;-92
2022/05/20 10:02:35;;;;;;;2.00;1.30;;;;;;;24.13;27.63;97959.25;5031360;28;20302;-94
2022/05/20 10:05:29;;;;;;;1.93;1.53;;;;;;;24.40;26.54;97963.19;5030462;28;20203;-90
2022/05/20 10:08:12;;;;;;;2.00;1.43;;;;;;;24.06;26.80;97936.97;5041701;28;20210;-88
2022/05/20 10:10:55;;;;;;;2.13;1.30;;;;;;;24.28;26.24;97959.75;5053471;28;20260;-90
2022/05/20 10:13:53;;;;;;;2.37;1.33;;;;;;;23.94;26.66;97955.66;5031808;28;20682;-88
2022/05/20 10:16:51;;;;;;;2.33;1.30;;;;;;;23.99;27.39;97946.34;5031842;28;20218;-93
2022/05/20 10:19:51;;;;;;;2.93;1.27;;;;;;;23.86;26.68;97953.69;5052091;28;20188;-90
2022/05/20 10:23:24;;;;;;;1.57;1.20;;;;;;;24.02;26.27;97939.97;5040989;28;20229;-91
2022/05/20 10:26:12;;;;;;;2.63;1.30;;;;;;;23.54;26.02;97807.41;5016900;28;20192;-92
2022/05/20 10:35:10;;;;;;;2.10;1.90;;;;;;;23.81;24.99;97786.53;5038371;28;20228;-92
2022/05/20 10:38:17;;;;;;;1.43;1.33;;;;;;;24.42;24.18;97919.66;5020166;28;20202;-92
2022/05/20 10:41:12;;;;;;;2.67;1.47;;;;;;;24.59;25.46;97920.84;5026094;28;20274;-91
2022/05/20 10:50:36;;;;;;;2.30;1.20;;;;;;;23.84;25.61;97820.66;5036535;28;20215;-91
2022/05/20 10:53:40;;;;;;;2.60;1.23;;;;;;;24.33;25.63;97906.41;5038985;28;20211;-90
2022/05/20 10:56:50;;;;;;;3.33;1.40;;;;;;;24.63;25.42;97903.69;5040016;28;20261;-94
2022/05/20 10:59:30;;;;;;;2.37;1.43;;;;;;;24.91;25.07;97892.38;5025380;28;20225;-87
2022/05/20 11:02:00;;;;;;;2.70;1.10;;;;;;;25.19;25.01;97898.66;5052776;28;20254;-85
2022/05/20 11:04:43;;;;;;;2.40;1.40;;;;;;;25.28;25.39;97892.50;5060450;28;20197;-86
2022/05/20 11:07:43;;;;;;;3.17;1.40;;;;;;;25.32;24.74;97886.78;5053602;28;20664;-89
2022/05/20 11:10:28;;;;;;;2.50;1.17;;;;;;;25.06;24.80;97890.97;5055121;28;20782;-91
2022/05/20 11:13:36;;;;;;;2.77;1.80;;;;;;;25.17;24.93;97880.22;5034156;28;20205;-86
2022/05/20 11:16:28;;;;;;;3.27;1.60;;;;;;;25.10;25.37;97851.78;5035790;28;20743;-86
2022/05/20 11:19:25;;;;;;;2.73;1.60;;;;;;;25.11;24.75;97877.28;5020477;28;20197;-91
2022/05/20 11:22:33;;;;;;;2.10;1.33;;;;;;;25.10;25.17;97879.09;5020289;28;20249;-88
2022/05/20 11:25:36;;;;;;;5.30;3.70;;;;;;;24.84;25.27;97873.53;5051994;28;20773;-88
2022/05/20 11:28:29;;;;;;;2.70;1.70;;;;;;;24.30;26.50;97803.44;5053336;28;20197;-96
2022/05/20 11:31:20;;;;;;;3.07;1.30;;;;;;;25.10;25.93;97863.19;5040263;28;20200;-93
2022/05/20 11:34:08;;;;;;;4.60;1.30;;;;;;;25.02;26.13;97861.25;5056387;28;20266;-91
2022/05/20 11:37:00;;;;;;;3.17;2.03;;;;;;;25.32;25.37;97854.97;5033185;28;20205;-89
2022/05/20 11:40:10;;;;;;;2.03;1.17;;;;;;;25.27;24.64;97862.50;5052010;28;20554;-91
2022/05/20 11:43:10;;;;;;;2.30;1.23;;;;;;;25.09;24.56;97858.88;5041823;28;20194;-87
2022/05/20 11:45:58;;;;;;;1.30;1.20;;;;;;;25.17;25.28;97815.75;5059177;28;20219;-88
2022/05/20 11:49:03;;;;;;;2.23;1.40;;;;;;;25.24;25.68;97856.66;5032915;28;20216;-89
2022/05/20 11:52:03;;;;;;;1.87;1.30;;;;;;;25.30;25.49;97848.97;5033174;28;20259;-91
2022/05/20 11:54:43;;;;;;;2.97;1.80;;;;;;;25.26;25.00;97836.13;5011419;28;20212;-89
2022/05/20 11:57:27;;;;;;;2.63;1.10;;;;;;;25.37;25.67;97852.72;5032874;28;20196;-94
2022/05/20 12:00:05;;;;;;;3.00;1.70;;;;;;;24.62;26.23;97777.53;5035515;28;20233;-95
2022/05/20 12:03:16;;;;;;;2.33;1.57;;;;;;;24.89;25.87;97791.78;5011899;28;20266;-90
2022/05/20 12:05:55;;;;;;;3.10;2.27;;;;;;;25.67;25.18;97843.75;5053092;28;20676;-87
2022/05/20 12:08:44;;;;;;;3.57;1.83;;;;;;;25.67;25.38;97839.28;5019203;28;20685;-92
2022/05/20 12:11:33;;;;;;;5.47;2.30;;;;;;;25.90;25.14;97836.28;5037698;28;20212;-90
2022/05/20 12:14:09;;;;;;;1.97;1.60;;;;;;;25.97;24.81;97830.22;5053397;28;20240;-88
2022/05/20 12:16:59;;;;;;;3.90;1.23;;;;;;;26.02;24.58;97825.31;5094503;22;20173;-90
2022/05/20 12:25:32;;;;;;;3.20;2.60;;;;;;;26.08;23.41;97819.47;5052156;28;20190;-90
2022/05/20 12:28:08;;;;;;;2.17;1.97;;;;;;;25.52;23.00;97779.69;5034562;28;20717;-90
2022/05/20 12:30:44;;;;;;;2.50;1.27;;;;;;;25.47;23.97;97784.59;5053508;28;20193;-89
2022/05/20 12:34:05;;;;;;;6.30;2.27;;;;;;;25.72;24.31;97807.00;5040112;28;20194;-93
2022/05/20 12:36:42;;;;;;;2.07;1.40;;;;;;;25.90;23.93;97791.16;5066105;28;20235;-87
2022/05/20 12:39:12;;;;;;;3.47;2.30;;;;;;;26.22;23.69;97796.88;5045201;28;20189;-96
2022/05/20 12:41:45;;;;;;;3.40;1.53;;;;;;;26.19;23.97;97798.03;5043494;28;20213;-88
2022/05/20 12:44:16;;;;;;;2.33;1.27;;;;;;;26.19;23.99;97797.19;5064061;28;20234;-84
2022/05/20 12:47:06;;;;;;;3.30;1.33;;;;;;;26.22;24.27;97794.22;5055059;28;20190;-95
2022/05/20 12:49:49;;;;;;;1.90;1.47;;;;;;;26.22;24.01;97784.44;5063744;28;20186;-92
2022/05/20 12:52:25;;;;;;;2.17;1.37;;;;;;;26.28;24.41;97780.34;5042548;28;20243;-90
2022/05/20 12:55:10;;;;;;;1.93;1.53;;;;;;;25.57;24.71;97705.00;5046218;28;20219;-86
2022/05/20 12:57:54;;;;;;;2.50;1.20;;;;;;;25.84;24.73;97768.69;5057168;28;20189;-86
2022/05/20 13:00:30;;;;;;;5.53;1.70;;;;;;;26.04;24.18;97764.94;5039365;28;20576;-89
2022/05/20 13:03:22;;;;;;;1.90;1.37;;;;;;;25.69;24.78;97736.50;5057781;28;20255;-90
2022/05/20 13:06:00;;;;;;;2.43;1.77;;;;;;;25.59;24.85;97721.59;5046553;28;20190;-88
2022/05/20 13:08:46;;;;;;;2.43;1.27;;;;;;;25.75;24.79;97735.06;5061853;28;20223;-86
2022/05/20 13:11:21;;;;;;;1.10;0.80;;;;;;;25.45;24.88;97687.59;5058020;28;20580;-91
2022/05/20 13:13:59;;;;;;;2.80;1.10;;;;;;;26.01;24.50;97751.97;5042779;28;20197;-85
2022/05/20 13:16:27;;;;;;;1.80;1.40;;;;;;;25.84;24.43;97705.00;5044271;28;20188;-85
2022/05/20 13:19:11;;;;;;;3.47;1.70;;;;;;;25.84;24.70;97683.75;5067408;28;20225;-87
2022/05/20 13:21:44;;;;;;;1.83;1.37;;;;;;;25.52;25.07;97702.78;5069416;28;20224;-90
2022/05/20 13:24:28;;;;;;;3.50;1.67;;;;;;;25.32;24.71;97661.38;5013443;28;20225;-90
2022/05/20 13:27:17;;;;;;;1.73;1.20;;;;;;;24.94;24.87;97584.63;5031993;28;20272;-92
2022/05/20 13:29:51;;;;;;;6.83;3.50;;;;;;;26.15;24.75;97734.75;5020189;28;20200;-89
2022/05/20 13:32:24;;;;;;;2.03;1.20;;;;;;;26.09;24.58;97714.91;5067764;28;20193;-84
2022/05/20 13:35:06;;;;;;;3.40;2.77;;;;;;;25.54;24.01;97594.69;5072855;28;20181;-86
2022/05/20 13:37:54;;;;;;;2.83;2.10;;;;;;;26.03;24.31;97648.28;5038840;28;20658;-88
2022/05/20 13:40:40;;;;;;;3.10;1.73;;;;;;;25.52;24.71;97585.19;5053874;28;20189;-86